sensor_id;sensor_type;location;lat;lon;timestamp;pressure;altitude;pressure_sealevel;temperature;humidity
76195;BME280;64964;48.694;21.206;2022-12-05T00:00:51;98674.50;;;4.32;74.31
76195;BME280;64964;48.694;21.206;2022-12-05T00:03:16;98676.50;;;4.29;74.35
76195;BME280;64964;48.694;21.206;2022-12-05T00:05:42;98674.13;;;4.25;74.41
76195;BME280;64964;48.694;21.206;2022-12-05T00:08:07;98669.97;;;4.23;74.27
76195;BME280;64964;48.694;21.206;2022-12-05T00:10:36;98672.66;;;4.21;74.34
76195;BME280;64964;48.694;21.206;2022-12-05T00:13:02;98670.88;;;4.22;74.34
76195;BME280;64964;48.694;21.206;2022-12-05T00:15:28;98669.13;;;4.22;74.23
76195;BME280;64964;48.694;21.206;2022-12-05T00:17:53;98671.97;;;4.19;74.29
76195;BME280;64964;48.694;21.206;2022-12-05T00:20:19;98674.66;;;4.07;74.69
76195;BME280;64964;48.694;21.206;2022-12-05T00:22:45;98678.31;;;4.04;74.52
76195;BME280;64964;48.694;21.206;2022-12-05T00:25:10;98666.06;;;4.05;74.36
76195;BME280;64964;48.694;21.206;2022-12-05T00:27:35;98672.13;;;4.05;74.67
76195;BME280;64964;48.694;21.206;2022-12-05T00:30:01;98671.28;;;4.05;74.46
76195;BME280;64964;48.694;21.206;2022-12-05T00:32:28;98664.41;;;4.04;74.63
76195;BME280;64964;48.694;21.206;2022-12-05T00:34:54;98665.13;;;4.06;74.54
76195;BME280;64964;48.694;21.206;2022-12-05T00:37:19;98663.22;;;4.08;74.61
76195;BME280;64964;48.694;21.206;2022-12-05T00:39:45;98658.81;;;4.08;74.47
76195;BME280;64964;48.694;21.206;2022-12-05T00:42:10;98660.59;;;4.08;74.54
76195;BME280;64964;48.694;21.206;2022-12-05T00:44:36;98663.09;;;4.09;74.37
76195;BME280;64964;48.694;21.206;2022-12-05T00:47:01;98666.59;;;4.10;74.56
76195;BME280;64964;48.694;21.206;2022-12-05T00:49:27;98667.41;;;4.10;74.51
76195;BME280;64964;48.694;21.206;2022-12-05T00:51:52;98665.72;;;4.09;74.89
76195;BME280;64964;48.694;21.206;2022-12-05T00:54:18;98659.78;;;4.07;74.61
76195;BME280;64964;48.694;21.206;2022-12-05T00:56:44;98663.22;;;4.08;74.56
76195;BME280;64964;48.694;21.206;2022-12-05T00:59:17;98666.19;;;4.03;75.19
76195;BME280;64964;48.694;21.206;2022-12-05T01:01:45;98668.66;;;4.05;74.51
76195;BME280;64964;48.694;21.206;2022-12-05T01:04:19;98664.50;;;4.02;74.63
76195;BME280;64964;48.694;21.206;2022-12-05T01:06:45;98662.59;;;4.04;74.45
76195;BME280;64964;48.694;21.206;2022-12-05T01:09:17;98652.16;;;4.04;74.40
76195;BME280;64964;48.694;21.206;2022-12-05T01:11:42;98654.66;;;4.06;74.43
76195;BME280;64964;48.694;21.206;2022-12-05T01:14:09;98660.59;;;4.08;74.28
76195;BME280;64964;48.694;21.206;2022-12-05T01:16:37;98659.66;;;4.09;74.46
76195;BME280;64964;48.694;21.206;2022-12-05T01:19:16;98657.88;;;4.09;75.07
76195;BME280;64964;48.694;21.206;2022-12-05T01:21:42;98648.00;;;4.13;74.39
76195;BME280;64964;48.694;21.206;2022-12-05T01:24:09;98649.59;;;4.15;74.69
76195;BME280;64964;48.694;21.206;2022-12-05T01:26:35;98653.72;;;4.18;74.45
76195;BME280;64964;48.694;21.206;2022-12-05T01:29:00;98645.66;;;4.21;74.59
76195;BME280;64964;48.694;21.206;2022-12-05T01:31:28;98646.41;;;4.23;74.47
76195;BME280;64964;48.694;21.206;2022-12-05T01:33:56;98647.84;;;4.27;74.68
76195;BME280;64964;48.694;21.206;2022-12-05T01:36:22;98649.38;;;4.30;74.40
76195;BME280;64964;48.694;21.206;2022-12-05T01:38:49;98649.38;;;4.30;74.37
76195;BME280;64964;48.694;21.206;2022-12-05T01:41:21;98651.78;;;4.33;74.57
76195;BME280;64964;48.694;21.206;2022-12-05T01:44:02;98650.00;;;4.33;75.35
76195;BME280;64964;48.694;21.206;2022-12-05T01:46:33;98639.53;;;4.33;74.86
76195;BME280;64964;48.694;21.206;2022-12-05T01:49:02;98635.84;;;4.36;74.62
76195;BME280;64964;48.694;21.206;2022-12-05T01:51:31;98635.84;;;4.36;74.79
76195;BME280;64964;48.694;21.206;2022-12-05T01:53:58;98635.72;;;4.37;74.53
76195;BME280;64964;48.694;21.206;2022-12-05T01:56:23;98636.56;;;4.38;74.64
76195;BME280;64964;48.694;21.206;2022-12-05T01:58:50;98635.50;;;4.40;74.55
76195;BME280;64964;48.694;21.206;2022-12-05T02:01:17;98630.06;;;4.43;74.53
76195;BME280;64964;48.694;21.206;2022-12-05T02:03:43;98625.41;;;4.47;74.40
76195;BME280;64964;48.694;21.206;2022-12-05T02:06:12;98625.28;;;4.48;74.41
76195;BME280;64964;48.694;21.206;2022-12-05T02:08:37;98632.06;;;4.51;74.34
76195;BME280;64964;48.694;21.206;2022-12-05T02:11:05;98624.13;;;4.53;74.58
76195;BME280;64964;48.694;21.206;2022-12-05T02:19:08;98626.25;;;4.59;74.91
76195;BME280;64964;48.694;21.206;2022-12-05T02:27:38;98624.13;;;4.64;74.30
76195;BME280;64964;48.694;21.206;2022-12-05T02:30:54;98631.16;;;4.63;75.42
76195;BME280;64964;48.694;21.206;2022-12-05T02:36:06;98633.41;;;4.68;75.13
76195;BME280;64964;48.694;21.206;2022-12-05T02:44:17;98635.22;;;4.79;74.98
76195;BME280;64964;48.694;21.206;2022-12-05T02:46:43;98634.16;;;4.81;74.19
76195;BME280;64964;48.694;21.206;2022-12-05T02:49:15;98630.59;;;4.82;74.38
76195;BME280;64964;48.694;21.206;2022-12-05T02:51:47;98630.47;;;4.84;74.23
76195;BME280;64964;48.694;21.206;2022-12-05T02:54:17;98630.38;;;4.85;74.09
76195;BME280;64964;48.694;21.206;2022-12-05T02:56:45;98622.38;;;4.87;73.95
76195;BME280;64964;48.694;21.206;2022-12-05T02:59:10;98620.59;;;4.87;74.15
76195;BME280;64964;48.694;21.206;2022-12-05T03:01:36;98628.44;;;4.87;74.12
76195;BME280;64964;48.694;21.206;2022-12-05T03:04:03;98624.88;;;4.88;74.09
76195;BME280;64964;48.694;21.206;2022-12-05T03:06:34;98635.25;;;4.90;74.33
76195;BME280;64964;48.694;21.206;2022-12-05T03:09:11;98633.47;;;4.90;74.80
76195;BME280;64964;48.694;21.206;2022-12-05T03:11:51;98640.47;;;4.90;75.02
76195;BME280;64964;48.694;21.206;2022-12-05T03:14:27;98632.59;;;4.79;75.83
76195;BME280;64964;48.694;21.206;2022-12-05T03:17:00;98642.59;;;4.73;75.19
76195;BME280;64964;48.694;21.206;2022-12-05T03:19:31;98641.13;;;4.58;76.79
76195;BME280;64964;48.694;21.206;2022-12-05T03:22:07;98647.34;;;4.57;75.79
76195;BME280;64964;48.694;21.206;2022-12-05T03:24:36;98639.34;;;4.47;76.94
76195;BME280;64964;48.694;21.206;2022-12-05T03:27:10;98638.38;;;4.48;76.06
76195;BME280;64964;48.694;21.206;2022-12-05T03:29:40;98641.38;;;4.55;75.37
76195;BME280;64964;48.694;21.206;2022-12-05T03:35:08;98646.59;;;4.55;76.04
76195;BME280;64964;48.694;21.206;2022-12-05T03:40:31;98647.13;;;4.60;75.81
76195;BME280;64964;48.694;21.206;2022-12-05T03:43:10;98652.09;;;4.63;75.46
76195;BME280;64964;48.694;21.206;2022-12-05T03:46:15;98654.34;;;4.68;75.25
76195;BME280;64964;48.694;21.206;2022-12-05T03:51:15;98654.63;;;4.76;74.83
76195;BME280;64964;48.694;21.206;2022-12-05T03:53:51;98656.31;;;4.77;75.15
76195;BME280;64964;48.694;21.206;2022-12-05T03:56:28;98653.44;;;4.80;75.00
76195;BME280;64964;48.694;21.206;2022-12-05T03:59:06;98668.09;;;4.83;75.15
76195;BME280;64964;48.694;21.206;2022-12-05T04:01:33;98657.38;;;4.86;74.59
76195;BME280;64964;48.694;21.206;2022-12-05T04:04:07;98658.22;;;4.86;74.86
76195;BME280;64964;48.694;21.206;2022-12-05T04:06:36;98660.84;;;4.86;75.05
76195;BME280;64964;48.694;21.206;2022-12-05T04:09:25;98656.56;;;4.85;75.62
76195;BME280;64964;48.694;21.206;2022-12-05T04:11:55;98656.44;;;4.87;74.27
76195;BME280;64964;48.694;21.206;2022-12-05T04:14:29;98657.25;;;4.87;74.74
76195;BME280;64964;48.694;21.206;2022-12-05T04:17:12;98652.16;;;4.86;75.67
76195;BME280;64964;48.694;21.206;2022-12-05T04:19:43;98655.47;;;4.88;74.91
76195;BME280;64964;48.694;21.206;2022-12-05T04:22:29;98656.19;;;4.90;74.68
76195;BME280;64964;48.694;21.206;2022-12-05T04:24:57;98652.63;;;4.91;75.07
76195;BME280;64964;48.694;21.206;2022-12-05T04:35:46;98668.47;;;4.89;76.23
76195;BME280;64964;48.694;21.206;2022-12-05T04:38:19;98658.31;;;4.85;76.36
76195;BME280;64964;48.694;21.206;2022-12-05T04:40:59;98660.47;;;4.80;77.08
76195;BME280;64964;48.694;21.206;2022-12-05T04:43:27;98662.47;;;4.76;76.92
76195;BME280;64964;48.694;21.206;2022-12-05T04:45:56;98672.03;;;4.77;75.84
76195;BME280;64964;48.694;21.206;2022-12-05T04:48:26;98673.56;;;4.68;77.19
76195;BME280;64964;48.694;21.206;2022-12-05T04:50:53;98668.63;;;4.64;77.47
76195;BME280;64964;48.694;21.206;2022-12-05T04:53:22;98668.88;;;4.61;78.17
76195;BME280;64964;48.694;21.206;2022-12-05T04:55:51;98672.44;;;4.60;78.18
76195;BME280;64964;48.694;21.206;2022-12-05T04:58:21;98665.44;;;4.60;77.89
76195;BME280;64964;48.694;21.206;2022-12-05T05:01:05;98672.34;;;4.61;78.14
76195;BME280;64964;48.694;21.206;2022-12-05T05:03:47;98673.66;;;4.56;78.55
76195;BME280;64964;48.694;21.206;2022-12-05T05:06:14;98673.13;;;4.50;78.36
76195;BME280;64964;48.694;21.206;2022-12-05T05:08:52;98679.31;;;4.49;78.24
76195;BME280;64964;48.694;21.206;2022-12-05T05:11:27;98676.22;;;4.44;79.06
76195;BME280;64964;48.694;21.206;2022-12-05T05:13:53;98678.72;;;4.46;78.50
76195;BME280;64964;48.694;21.206;2022-12-05T05:16:22;98680.50;;;4.45;77.87
76195;BME280;64964;48.694;21.206;2022-12-05T05:18:49;98678.84;;;4.44;78.18
76195;BME280;64964;48.694;21.206;2022-12-05T05:21:21;98682.50;;;4.42;78.92
76195;BME280;64964;48.694;21.206;2022-12-05T05:23:48;98684.63;;;4.37;79.11
76195;BME280;64964;48.694;21.206;2022-12-05T05:26:14;98690.09;;;4.34;79.23
76195;BME280;64964;48.694;21.206;2022-12-05T05:28:39;98684.16;;;4.32;78.81
76195;BME280;64964;48.694;21.206;2022-12-05T05:31:05;98680.56;;;4.33;79.42
76195;BME280;64964;48.694;21.206;2022-12-05T05:33:31;98674.50;;;4.32;78.88
76195;BME280;64964;48.694;21.206;2022-12-05T05:36:01;98677.34;;;4.29;79.38
76195;BME280;64964;48.694;21.206;2022-12-05T05:38:27;98683.88;;;4.23;80.42
76195;BME280;64964;48.694;21.206;2022-12-05T05:40:52;98676.13;;;4.22;80.46
76195;BME280;64964;48.694;21.206;2022-12-05T05:43:17;98682.09;;;4.24;79.97
76195;BME280;64964;48.694;21.206;2022-12-05T05:45:43;98686.16;;;4.28;80.01
76195;BME280;64964;48.694;21.206;2022-12-05T05:48:08;98686.16;;;4.28;80.47
76195;BME280;64964;48.694;21.206;2022-12-05T05:50:34;98683.53;;;4.28;80.39
76195;BME280;64964;48.694;21.206;2022-12-05T05:52:59;98683.53;;;4.28;80.04
76195;BME280;64964;48.694;21.206;2022-12-05T05:55:24;98686.97;;;4.29;80.16
76195;BME280;64964;48.694;21.206;2022-12-05T05:57:50;98692.84;;;4.32;80.11
76195;BME280;64964;48.694;21.206;2022-12-05T06:00:15;98684.97;;;4.32;80.44
76195;BME280;64964;48.694;21.206;2022-12-05T06:02:41;98695.31;;;4.34;80.88
76195;BME280;64964;48.694;21.206;2022-12-05T06:05:07;98704.13;;;4.33;80.96
76195;BME280;64964;48.694;21.206;2022-12-05T06:07:32;98706.97;;;4.30;81.09
76195;BME280;64964;48.694;21.206;2022-12-05T06:09:58;98699.84;;;4.32;80.35
76195;BME280;64964;48.694;21.206;2022-12-05T06:12:23;98705.09;;;4.32;81.17
76195;BME280;64964;48.694;21.206;2022-12-05T06:14:49;98708.88;;;4.28;81.79
76195;BME280;64964;48.694;21.206;2022-12-05T06:17:15;98707.81;;;4.30;80.97
76195;BME280;64964;48.694;21.206;2022-12-05T06:19:40;98709.84;;;4.27;81.79
76195;BME280;64964;48.694;21.206;2022-12-05T06:22:06;98711.38;;;4.29;80.74
76195;BME280;64964;48.694;21.206;2022-12-05T06:24:31;98706.13;;;4.29;81.05
76195;BME280;64964;48.694;21.206;2022-12-05T06:26:57;98709.25;;;4.34;80.22
76195;BME280;64964;48.694;21.206;2022-12-05T06:29:22;98714.38;;;4.36;81.00
76195;BME280;64964;48.694;21.206;2022-12-05T06:31:47;98713.22;;;4.40;80.74
76195;BME280;64964;48.694;21.206;2022-12-05T06:34:13;98721.78;;;4.42;80.98
76195;BME280;64964;48.694;21.206;2022-12-05T06:36:38;98714.88;;;4.41;81.43
76195;BME280;64964;48.694;21.206;2022-12-05T06:39:04;98721.56;;;4.45;80.61
76195;BME280;64964;48.694;21.206;2022-12-05T06:41:29;98723.44;;;4.43;81.31
76195;BME280;64964;48.694;21.206;2022-12-05T06:43:57;98725.22;;;4.42;80.98
76195;BME280;64964;48.694;21.206;2022-12-05T06:46:23;98734.38;;;4.37;81.84
76195;BME280;64964;48.694;21.206;2022-12-05T06:48:56;98729.00;;;4.38;80.48
76195;BME280;64964;48.694;21.206;2022-12-05T06:51:22;98734.88;;;4.42;80.41
76195;BME280;64964;48.694;21.206;2022-12-05T06:53:48;98731.41;;;4.41;81.44
76195;BME280;64964;48.694;21.206;2022-12-05T06:56:15;98725.84;;;4.46;80.34
76195;BME280;64964;48.694;21.206;2022-12-05T06:58:43;98730.25;;;4.45;80.71
76195;BME280;64964;48.694;21.206;2022-12-05T07:01:14;98728.38;;;4.47;80.29
76195;BME280;64964;48.694;21.206;2022-12-05T07:03:58;98729.91;;;4.50;80.16
76195;BME280;64964;48.694;21.206;2022-12-05T07:06:24;98733.00;;;4.55;79.87
76195;BME280;64964;48.694;21.206;2022-12-05T07:08:50;98735.53;;;4.57;80.38
76195;BME280;64964;48.694;21.206;2022-12-05T07:11:15;98729.34;;;4.58;79.90
76195;BME280;64964;48.694;21.206;2022-12-05T07:13:41;98741.13;;;4.63;79.66
76195;BME280;64964;48.694;21.206;2022-12-05T07:16:06;98746.28;;;4.65;79.86
76195;BME280;64964;48.694;21.206;2022-12-05T07:18:33;98751.50;;;4.65;80.09
76195;BME280;64964;48.694;21.206;2022-12-05T07:21:01;98750.06;;;4.61;80.67
76195;BME280;64964;48.694;21.206;2022-12-05T07:23:26;98746.63;;;4.60;79.84
76195;BME280;64964;48.694;21.206;2022-12-05T07:25:52;98754.28;;;4.50;81.82
76195;BME280;64964;48.694;21.206;2022-12-05T07:28:18;98753.94;;;4.44;82.01
76195;BME280;64964;48.694;21.206;2022-12-05T07:30:43;98762.72;;;4.43;80.92
76195;BME280;64964;48.694;21.206;2022-12-05T07:33:09;98759.94;;;4.33;82.33
76195;BME280;64964;48.694;21.206;2022-12-05T07:35:34;98760.75;;;4.34;81.47
76195;BME280;64964;48.694;21.206;2022-12-05T07:37:59;98759.50;;;4.39;81.04
76195;BME280;64964;48.694;21.206;2022-12-05T07:40:25;98762.13;;;4.39;81.74
76195;BME280;64964;48.694;21.206;2022-12-05T07:42:50;98762.00;;;4.41;81.78
76195;BME280;64964;48.694;21.206;2022-12-05T07:45:18;98768.81;;;4.43;81.61
76195;BME280;64964;48.694;21.206;2022-12-05T07:47:43;98769.63;;;4.44;81.04
76195;BME280;64964;48.694;21.206;2022-12-05T07:50:09;98769.19;;;4.50;80.68
76195;BME280;64964;48.694;21.206;2022-12-05T07:52:35;98767.03;;;4.55;80.51
76195;BME280;64964;48.694;21.206;2022-12-05T07:55:00;98768.50;;;4.59;80.41
76195;BME280;64964;48.694;21.206;2022-12-05T07:57:29;98761.03;;;4.66;80.03
76195;BME280;64964;48.694;21.206;2022-12-05T07:59:54;98770.34;;;4.70;80.08
76195;BME280;64964;48.694;21.206;2022-12-05T08:02:20;98762.97;;;4.75;80.00
76195;BME280;64964;48.694;21.206;2022-12-05T08:04:45;98762.88;;;4.77;80.36
76195;BME280;64964;48.694;21.206;2022-12-05T08:07:10;98760.34;;;4.75;79.87
76195;BME280;64964;48.694;21.206;2022-12-05T08:09:36;98764.41;;;4.79;80.02
76195;BME280;64964;48.694;21.206;2022-12-05T08:12:01;98765.72;;;4.73;80.68
76195;BME280;64964;48.694;21.206;2022-12-05T08:14:26;98769.38;;;4.71;80.20
76195;BME280;64964;48.694;21.206;2022-12-05T08:16:52;98770.00;;;4.74;79.87
76195;BME280;64964;48.694;21.206;2022-12-05T08:19:18;98763.78;;;4.75;80.14
76195;BME280;64964;48.694;21.206;2022-12-05T08:21:43;98770.47;;;4.80;79.97
76195;BME280;64964;48.694;21.206;2022-12-05T08:24:09;98770.38;;;4.81;79.85
76195;BME280;64964;48.694;21.206;2022-12-05T08:26:36;98769.44;;;4.82;79.90
76195;BME280;64964;48.694;21.206;2022-12-05T08:29:10;98769.16;;;4.74;80.69
76195;BME280;64964;48.694;21.206;2022-12-05T08:31:42;98768.66;;;4.69;80.54
76195;BME280;64964;48.694;21.206;2022-12-05T08:34:10;98759.38;;;4.65;81.15
76195;BME280;64964;48.694;21.206;2022-12-05T08:36:37;98762.81;;;4.65;80.62
76195;BME280;64964;48.694;21.206;2022-12-05T08:39:04;98759.94;;;4.57;82.25
76195;BME280;64964;48.694;21.206;2022-12-05T08:41:30;98768.75;;;4.56;81.71
76195;BME280;64964;48.694;21.206;2022-12-05T08:44:00;98759.44;;;4.52;82.56
76195;BME280;64964;48.694;21.206;2022-12-05T08:46:34;98765.09;;;4.46;82.82
76195;BME280;64964;48.694;21.206;2022-12-05T08:49:01;98766.56;;;4.50;82.89
76195;BME280;64964;48.694;21.206;2022-12-05T08:51:27;98762.97;;;4.51;82.34
76195;BME280;64964;48.694;21.206;2022-12-05T08:53:52;98758.91;;;4.47;82.96
76195;BME280;64964;48.694;21.206;2022-12-05T08:56:17;98763.94;;;4.50;81.78
76195;BME280;64964;48.694;21.206;2022-12-05T08:58:43;98760.88;;;4.56;81.74
76195;BME280;64964;48.694;21.206;2022-12-05T09:01:17;98760.41;;;4.62;81.80
76195;BME280;64964;48.694;21.206;2022-12-05T09:03:43;98755.06;;;4.64;81.85
76195;BME280;64964;48.694;21.206;2022-12-05T09:08:36;98755.56;;;4.69;81.76
76195;BME280;64964;48.694;21.206;2022-12-05T09:11:13;98762.13;;;4.74;81.02
76195;BME280;64964;48.694;21.206;2022-12-05T09:13:39;98751.19;;;4.81;81.43
76195;BME280;64964;48.694;21.206;2022-12-05T09:16:07;98752.88;;;4.82;81.88
76195;BME280;64964;48.694;21.206;2022-12-05T09:18:34;98762.88;;;4.88;81.12
76195;BME280;64964;48.694;21.206;2022-12-05T09:21:15;98754.53;;;4.83;81.57
76195;BME280;64964;48.694;21.206;2022-12-05T09:23:41;98752.75;;;4.83;80.98
76195;BME280;64964;48.694;21.206;2022-12-05T09:26:10;98755.50;;;4.82;81.70
76195;BME280;64964;48.694;21.206;2022-12-05T09:28:36;98747.25;;;4.75;82.05
76195;BME280;64964;48.694;21.206;2022-12-05T09:31:05;98750.22;;;4.70;83.16
76195;BME280;64964;48.694;21.206;2022-12-05T09:33:32;98747.47;;;4.72;82.83
76195;BME280;64964;48.694;21.206;2022-12-05T09:36:00;98746.03;;;4.68;82.90
76195;BME280;64964;48.694;21.206;2022-12-05T09:38:26;98748.81;;;4.78;81.63
76195;BME280;64964;48.694;21.206;2022-12-05T09:44:00;98750.75;;;4.87;82.17
76195;BME280;64964;48.694;21.206;2022-12-05T09:49:18;98755.16;;;4.86;81.61
76195;BME280;64964;48.694;21.206;2022-12-05T09:51:44;98753.50;;;4.85;82.30
76195;BME280;64964;48.694;21.206;2022-12-05T09:54:12;98752.53;;;4.86;82.32
76195;BME280;64964;48.694;21.206;2022-12-05T09:56:37;98753.00;;;4.91;81.42
76195;BME280;64964;48.694;21.206;2022-12-05T09:59:12;98751.19;;;4.81;83.12
76195;BME280;64964;48.694;21.206;2022-12-05T10:02:36;98746.53;;;4.73;83.29
76195;BME280;64964;48.694;21.206;2022-12-05T10:04:50;98750.22;;;4.70;83.08
76195;BME280;64964;48.694;21.206;2022-12-05T10:07:50;98755.09;;;4.75;82.51
76195;BME280;64964;48.694;21.206;2022-12-05T10:10:29;98747.72;;;4.80;82.31
76195;BME280;64964;48.694;21.206;2022-12-05T10:13:29;98742.28;;;4.83;82.72
76195;BME280;64964;48.694;21.206;2022-12-05T10:16:05;98744.53;;;4.88;82.30
76195;BME280;64964;48.694;21.206;2022-12-05T10:18:51;98747.34;;;4.97;81.97
76195;BME280;64964;48.694;21.206;2022-12-05T10:21:27;98746.63;;;5.07;81.11
76195;BME280;64964;48.694;21.206;2022-12-05T10:23:58;98745.19;;;5.03;82.48
76195;BME280;64964;48.694;21.206;2022-12-05T10:26:32;98740.66;;;5.05;82.33
76195;BME280;64964;48.694;21.206;2022-12-05T10:29:29;98736.50;;;5.02;81.72
76195;BME280;64964;48.694;21.206;2022-12-05T10:32:17;98735.06;;;4.98;82.23
76195;BME280;64964;48.694;21.206;2022-12-05T10:34:44;98736.38;;;5.04;81.46
76195;BME280;64964;48.694;21.206;2022-12-05T10:37:14;98728.72;;;5.00;81.72
76195;BME280;64964;48.694;21.206;2022-12-05T10:39:40;98730.66;;;4.98;82.17
76195;BME280;64964;48.694;21.206;2022-12-05T10:42:13;98718.16;;;5.02;81.53
76195;BME280;64964;48.694;21.206;2022-12-05T10:44:40;98724.22;;;5.03;81.78
76195;BME280;64964;48.694;21.206;2022-12-05T10:47:06;98719.59;;;5.06;81.83
76195;BME280;64964;48.694;21.206;2022-12-05T10:49:33;98716.97;;;5.06;82.15
76195;BME280;64964;48.694;21.206;2022-12-05T10:51:59;98712.19;;;5.00;82.67
76195;BME280;64964;48.694;21.206;2022-12-05T10:54:29;98709.78;;;4.97;82.45
76195;BME280;64964;48.694;21.206;2022-12-05T10:56:55;98710.66;;;4.97;81.99
76195;BME280;64964;48.694;21.206;2022-12-05T10:59:23;98710.53;;;4.99;82.57
76195;BME280;64964;48.694;21.206;2022-12-05T11:01:51;98704.19;;;4.90;83.49
76195;BME280;64964;48.694;21.206;2022-12-05T11:07:02;98711.44;;;4.87;83.46
76195;BME280;64964;48.694;21.206;2022-12-05T11:09:30;98694.06;;;4.86;82.69
76195;BME280;64964;48.694;21.206;2022-12-05T11:12:12;98695.84;;;4.85;83.60
76195;BME280;64964;48.694;21.206;2022-12-05T11:14:39;98694.16;;;4.84;83.99
76195;BME280;64964;48.694;21.206;2022-12-05T11:17:05;98697.38;;;4.88;83.30
76195;BME280;64964;48.694;21.206;2022-12-05T11:19:37;98695.13;;;4.83;84.21
76195;BME280;64964;48.694;21.206;2022-12-05T11:22:04;98690.25;;;4.90;82.92
76195;BME280;64964;48.694;21.206;2022-12-05T11:24:33;98695.59;;;4.88;83.25
76195;BME280;64964;48.694;21.206;2022-12-05T11:27:18;98688.00;;;4.85;83.90
76195;BME280;64964;48.694;21.206;2022-12-05T11:32:38;98690.50;;;4.87;84.33
76195;BME280;64964;48.694;21.206;2022-12-05T11:35:28;98688.00;;;4.96;82.55
76195;BME280;64964;48.694;21.206;2022-12-05T11:38:03;98686.19;;;4.97;83.08
76195;BME280;64964;48.694;21.206;2022-12-05T11:56:53;98671.81;;;5.14;83.05
76195;BME280;64964;48.694;21.206;2022-12-05T12:04:43;98655.38;;;5.12;83.04
76195;BME280;64964;48.694;21.206;2022-12-05T12:18:34;98649.66;;;5.18;82.82
76195;BME280;64964;48.694;21.206;2022-12-05T12:23:42;98642.28;;;5.23;82.33
76195;BME280;64964;48.694;21.206;2022-12-05T12:31:54;98624.63;;;5.36;82.13
76195;BME280;64964;48.694;21.206;2022-12-05T12:34:53;98622.69;;;5.38;82.28
76195;BME280;64964;48.694;21.206;2022-12-05T12:40:49;98612.81;;;5.31;82.46
76195;BME280;64964;48.694;21.206;2022-12-05T12:51:20;98603.56;;;5.15;83.13
76195;BME280;64964;48.694;21.206;2022-12-05T12:53:55;98597.72;;;5.12;83.61
76195;BME280;64964;48.694;21.206;2022-12-05T13:01:45;98596.53;;;5.16;83.21
76195;BME280;64964;48.694;21.206;2022-12-05T13:04:22;98598.09;;;5.18;83.06
76195;BME280;64964;48.694;21.206;2022-12-05T13:06:54;98597.94;;;5.20;82.86
76195;BME280;64964;48.694;21.206;2022-12-05T13:09:35;98594.28;;;5.22;82.90
76195;BME280;64964;48.694;21.206;2022-12-05T13:12:09;98592.56;;;5.21;83.21
76195;BME280;64964;48.694;21.206;2022-12-05T13:14:36;98588.06;;;5.23;82.87
76195;BME280;64964;48.694;21.206;2022-12-05T13:17:05;98592.34;;;5.24;82.79
76195;BME280;64964;48.694;21.206;2022-12-05T13:19:41;98596.03;;;5.22;83.24
76195;BME280;64964;48.694;21.206;2022-12-05T13:22:08;98598.41;;;5.25;82.71
76195;BME280;64964;48.694;21.206;2022-12-05T13:24:34;98601.03;;;5.25;83.25
76195;BME280;64964;48.694;21.206;2022-12-05T13:27:04;98599.75;;;5.19;83.66
76195;BME280;64964;48.694;21.206;2022-12-05T13:32:30;98592.56;;;5.21;83.17
76195;BME280;64964;48.694;21.206;2022-12-05T13:37:31;98592.25;;;5.15;83.94
76195;BME280;64964;48.694;21.206;2022-12-05T13:43:07;98592.72;;;5.20;82.84
76195;BME280;64964;48.694;21.206;2022-12-05T13:45:34;98590.91;;;5.20;83.28
76195;BME280;64964;48.694;21.206;2022-12-05T13:52:54;98573.88;;;5.26;83.18
76195;BME280;64964;48.694;21.206;2022-12-05T13:55:27;98567.41;;;5.30;82.71
76195;BME280;64964;48.694;21.206;2022-12-05T13:57:56;98568.84;;;5.34;82.16
76195;BME280;64964;48.694;21.206;2022-12-05T14:00:27;98567.78;;;5.37;82.51
76195;BME280;64964;48.694;21.206;2022-12-05T14:02:56;98565.75;;;5.40;82.08
76195;BME280;64964;48.694;21.206;2022-12-05T14:07:56;98568.00;;;5.45;82.00
76195;BME280;64964;48.694;21.206;2022-12-05T14:12:58;98567.38;;;5.53;81.73
76195;BME280;64964;48.694;21.206;2022-12-05T14:18:08;98556.75;;;5.54;81.73
76195;BME280;64964;48.694;21.206;2022-12-05T14:20:46;98558.56;;;5.54;81.70
76195;BME280;64964;48.694;21.206;2022-12-05T14:31:17;98567.97;;;5.56;81.45
76195;BME280;64964;48.694;21.206;2022-12-05T14:37:03;98573.31;;;5.55;81.15
76195;BME280;64964;48.694;21.206;2022-12-05T14:42:04;98556.75;;;5.54;80.88
76195;BME280;64964;48.694;21.206;2022-12-05T14:44:31;98561.63;;;5.59;81.01
76195;BME280;64964;48.694;21.206;2022-12-05T14:47:02;98562.84;;;5.55;80.98
76195;BME280;64964;48.694;21.206;2022-12-05T14:52:22;98562.00;;;5.54;80.86
76195;BME280;64964;48.694;21.206;2022-12-05T14:54:51;98562.00;;;5.54;80.70
76195;BME280;64964;48.694;21.206;2022-12-05T14:57:18;98562.72;;;5.56;80.71
76195;BME280;64964;48.694;21.206;2022-12-05T14:59:50;98562.84;;;5.55;80.76
76195;BME280;64964;48.694;21.206;2022-12-05T15:02:26;98563.94;;;5.52;80.58
76195;BME280;64964;48.694;21.206;2022-12-05T15:05:08;98556.53;;;5.46;81.16
76195;BME280;64964;48.694;21.206;2022-12-05T15:07:38;98565.69;;;5.52;80.83
76195;BME280;64964;48.694;21.206;2022-12-05T15:10:32;98559.03;;;5.47;81.10
76195;BME280;64964;48.694;21.206;2022-12-05T15:13:20;98572.88;;;5.49;81.40
76195;BME280;64964;48.694;21.206;2022-12-05T15:16:14;98561.41;;;5.50;81.10
76195;BME280;64964;48.694;21.206;2022-12-05T15:18:45;98556.06;;;5.52;80.90
76195;BME280;64964;48.694;21.206;2022-12-05T15:21:25;98554.28;;;5.53;81.22
76195;BME280;64964;48.694;21.206;2022-12-05T15:23:57;98551.66;;;5.53;80.83
76195;BME280;64964;48.694;21.206;2022-12-05T15:26:28;98552.09;;;5.58;80.73
76195;BME280;64964;48.694;21.206;2022-12-05T15:31:35;98554.50;;;5.61;80.52
76195;BME280;64964;48.694;21.206;2022-12-05T15:39:55;98555.31;;;5.61;80.70
76195;BME280;64964;48.694;21.206;2022-12-05T15:42:23;98550.06;;;5.61;80.48
76195;BME280;64964;48.694;21.206;2022-12-05T15:44:49;98553.53;;;5.62;80.86
76195;BME280;64964;48.694;21.206;2022-12-05T15:47:24;98551.72;;;5.62;80.70
76195;BME280;64964;48.694;21.206;2022-12-05T15:49:50;98555.91;;;5.65;80.47